Time;durP1;ratioP1;P1;durP2;ratioP2;P2;SDS_P1;SDS_P2;PMS_P1;PMS_P2;Temp;Humidity;BMP_temperature;BMP_pressure;BME280_temperature;BME280_humidity;BME280_pressure;Samples;Min_cycle;Max_cycle;Signal;HPM_P1;HPM_P2
2021/12/09 00:01:45;;;;;;;;;;;;;;;9.52;55.13;100123.28;5027491;28;19922;-89
2021/12/09 00:04:12;;;;;;;;;;;;;;;9.35;56.62;100118.81;5043768;28;19921;-85
2021/12/09 00:06:39;;;;;;;;;;;;;;;9.04;59.22;100116.88;5043931;28;19984;-83
2021/12/09 00:09:07;;;;;;;;;;;;;;;9.62;56.07;100118.28;5046625;28;19917;-84
2021/12/09 00:12:01;;;;;;;;;;;;;;;9.34;56.64;100118.91;5010998;28;19929;-84
2021/12/09 00:14:28;;;;;;;;;;;;;;;9.93;55.39;100122.84;5029143;28;19925;-84
2021/12/09 00:16:56;;;;;;;;;;;;;;;9.77;55.71;100124.66;5029748;28;19924;-84
2021/12/09 00:19:22;;;;;;;;;;;;;;;9.32;55.88;100127.09;5028417;28;20000;-84
2021/12/09 00:21:47;;;;;;;;;;;;;;;9.15;56.80;100135.19;5045071;28;19917;-84
2021/12/09 00:24:12;;;;;;;;;;;;;;;9.33;56.38;100139.63;5048319;28;19921;-84
2021/12/09 00:26:43;;;;;;;;;;;;;;;9.43;56.69;100140.00;5032270;28;19928;-86
2021/12/09 00:29:09;;;;;;;;;;;;;;;8.79;58.24;100139.75;5032603;28;19976;-88
2021/12/09 00:31:34;;;;;;;;;;;;;;;9.38;57.12;100134.84;5050096;28;19921;-83
2021/12/09 00:34:01;;;;;;;;;;;;;;;9.48;55.83;100139.75;5032800;28;20008;-83
2021/12/09 00:36:36;;;;;;;;;;;;;;;9.29;57.01;100137.19;5048765;28;20324;-87
2021/12/09 00:39:02;;;;;;;;;;;;;;;9.40;57.03;100135.66;5046854;28;19944;-85
2021/12/09 00:41:27;;;;;;;;;;;;;;;8.55;59.44;100135.63;5045767;28;19914;-85
2021/12/09 00:43:52;;;;;;;;;;;;;;;9.15;57.96;100135.19;5030593;28;19921;-88
2021/12/09 00:46:18;;;;;;;;;;;;;;;8.85;58.73;100128.66;5031008;28;19985;-83
2021/12/09 00:48:43;;;;;;;;;;;;;;;9.01;58.29;100130.53;5029837;28;19937;-86
2021/12/09 00:51:09;;;;;;;;;;;;;;;8.62;59.16;100134.34;5031750;28;20015;-82
2021/12/09 00:53:36;;;;;;;;;;;;;;;9.11;58.11;100134.50;5048813;28;19917;-88
2021/12/09 00:56:03;;;;;;;;;;;;;;;9.15;57.66;100130.69;5048643;28;19940;-83
2021/12/09 00:58:30;;;;;;;;;;;;;;;8.77;59.14;100130.88;5046830;28;20422;-85
2021/12/09 01:00:55;;;;;;;;;;;;;;;9.88;55.06;100130.31;5030331;28;19917;-88
2021/12/09 01:03:20;;;;;;;;;;;;;;;9.00;57.89;100134.22;5032279;28;19925;-82
2021/12/09 01:05:46;;;;;;;;;;;;;;;9.35;57.26;100126.06;5032936;28;19976;-85
2021/12/09 01:08:12;;;;;;;;;;;;;;;8.93;58.22;100127.38;5032326;28;19917;-82
2021/12/09 01:10:37;;;;;;;;;;;;;;;8.85;58.93;100128.66;5015411;28;20008;-82
2021/12/09 01:13:04;;;;;;;;;;;;;;;9.29;57.76;100127.25;5046650;28;19964;-85
2021/12/09 01:15:30;;;;;;;;;;;;;;;8.94;58.64;100121.03;5013523;28;20016;-86
2021/12/09 01:17:56;;;;;;;;;;;;;;;9.01;59.23;100126.03;5028162;28;19917;-86
2021/12/09 01:20:25;;;;;;;;;;;;;;;9.29;57.38;100124.56;5028825;28;19921;-86
2021/12/09 01:22:53;;;;;;;;;;;;;;;8.95;58.87;100125.47;5025898;28;19932;-87
2021/12/09 01:25:18;;;;;;;;;;;;;;;8.96;58.59;100121.81;5023616;28;19918;-87
2021/12/09 01:27:46;;;;;;;;;;;;;;;9.12;59.06;100122.75;5025127;28;19973;-85
2021/12/09 01:30:15;;;;;;;;;;;;;;;8.87;59.16;100129.44;5026430;28;19963;-85
2021/12/09 01:32:49;;;;;;;;;;;;;;;9.04;58.18;100136.66;5029697;28;19969;-84
2021/12/09 01:35:15;;;;;;;;;;;;;;;9.18;56.76;100135.06;5028354;28;19913;-81
2021/12/09 01:37:42;;;;;;;;;;;;;;;9.47;56.11;100135.31;5028756;28;19933;-82
2021/12/09 01:40:08;;;;;;;;;;;;;;;9.96;53.89;100134.41;5029287;28;19918;-83
2021/12/09 01:42:33;;;;;;;;;;;;;;;9.76;54.73;100136.41;5029854;28;19913;-86
2021/12/09 01:44:58;;;;;;;;;;;;;;;9.61;55.67;100134.56;5029660;28;20021;-81
2021/12/09 01:47:24;;;;;;;;;;;;;;;9.88;54.28;100135.72;5029235;28;19918;-86
2021/12/09 01:49:49;;;;;;;;;;;;;;;9.51;55.85;100148.56;5029409;28;19928;-84
2021/12/09 01:52:14;;;;;;;;;;;;;;;10.07;53.39;100140.06;5026780;28;20000;-84
2021/12/09 01:54:40;;;;;;;;;;;;;;;9.02;56.87;100135.00;5028763;28;19976;-82
2021/12/09 01:57:06;;;;;;;;;;;;;;;9.21;56.43;100137.59;5046551;28;19924;-83
2021/12/09 01:59:31;;;;;;;;;;;;;;;9.09;56.15;100152.59;5030243;28;19940;-84
2021/12/09 02:01:56;;;;;;;;;;;;;;;8.79;57.42;100145.16;5029028;28;19992;-81
2021/12/09 02:04:22;;;;;;;;;;;;;;;9.38;55.72;100142.94;5029217;28;19918;-84
2021/12/09 02:06:48;;;;;;;;;;;;;;;9.02;56.68;100145.78;5011646;28;19921;-84
2021/12/09 02:09:15;;;;;;;;;;;;;;;9.97;53.66;100142.44;5028842;28;19918;-82
2021/12/09 02:11:41;;;;;;;;;;;;;;;9.23;56.22;100141.06;5029420;28;19937;-83
2021/12/09 02:14:06;;;;;;;;;;;;;;;9.61;55.54;100148.06;5030865;28;19921;-82
2021/12/09 02:16:35;;;;;;;;;;;;;;;8.94;56.24;100148.88;5021504;28;19941;-81
2021/12/09 02:19:02;;;;;;;;;;;;;;;8.84;56.49;100143.06;5029771;28;19926;-82
2021/12/09 02:21:30;;;;;;;;;;;;;;;9.31;54.83;100146.91;5027305;28;20375;-88
2021/12/09 02:23:59;;;;;;;;;;;;;;;9.68;54.26;100144.94;5041038;28;19947;-84
2021/12/09 02:26:27;;;;;;;;;;;;;;;9.27;54.71;100147.16;5044414;28;19928;-85
2021/12/09 02:29:13;;;;;;;;;;;;;;;9.53;54.79;100152.03;5049390;28;19924;-81
2021/12/09 02:32:01;;;;;;;;;;;;;;;9.37;54.72;100149.28;5114851;23;19952;-81
2021/12/09 02:34:27;;;;;;;;;;;;;;;9.03;57.34;100145.69;5006024;28;20024;-82
2021/12/09 02:36:53;;;;;;;;;;;;;;;8.98;56.82;100145.09;5007149;28;19921;-82
2021/12/09 02:39:18;;;;;;;;;;;;;;;9.42;54.92;100143.66;5005954;28;19929;-81
2021/12/09 02:41:47;;;;;;;;;;;;;;;9.38;55.12;100147.47;5017948;23;19926;-81
2021/12/09 02:44:13;;;;;;;;;;;;;;;9.31;55.45;100146.06;5042108;28;19925;-85
2021/12/09 02:46:40;;;;;;;;;;;;;;;9.22;55.91;100136.63;5047233;28;19917;-85
2021/12/09 02:49:08;;;;;;;;;;;;;;;9.03;56.86;100148.41;5044096;28;19976;-87
2021/12/09 02:51:34;;;;;;;;;;;;;;;9.23;55.74;100144.63;5059855;28;19917;-89
2021/12/09 02:53:59;;;;;;;;;;;;;;;8.96;58.04;100141.56;5063119;28;19923;-82
2021/12/09 02:56:24;;;;;;;;;;;;;;;9.22;55.68;100142.03;5065691;28;19939;-85
2021/12/09 02:58:49;;;;;;;;;;;;;;;8.92;56.90;100147.22;5064637;28;19905;-81
2021/12/09 03:01:19;;;;;;;;;;;;;;;8.35;58.36;100148.25;5050663;28;20386;-82
2021/12/09 03:03:50;;;;;;;;;;;;;;;9.45;55.57;100134.50;5064413;28;19917;-82
2021/12/09 03:06:17;;;;;;;;;;;;;;;9.18;56.02;100137.75;5064563;28;19917;-81
2021/12/09 03:08:43;;;;;;;;;;;;;;;9.49;53.97;100142.34;5065544;28;19960;-82
2021/12/09 03:11:14;;;;;;;;;;;;;;;8.98;55.61;100149.59;5064690;28;19917;-83
2021/12/09 03:13:40;;;;;;;;;;;;;;;9.43;54.92;100141.84;5046393;23;19925;-81
2021/12/09 03:16:09;;;;;;;;;;;;;;;9.86;53.39;100136.78;5048278;28;20429;-82
2021/12/09 03:18:42;;;;;;;;;;;;;;;8.04;58.51;100157.81;5029794;28;19944;-82
2021/12/09 03:21:14;;;;;;;;;;;;;;;8.59;58.36;100150.69;5045808;28;19917;-80
2021/12/09 03:23:40;;;;;;;;;;;;;;;8.70;57.50;100151.03;5031269;28;19926;-81
2021/12/09 03:26:05;;;;;;;;;;;;;;;9.45;55.12;100150.72;5047982;28;19922;-82
2021/12/09 03:28:30;;;;;;;;;;;;;;;8.95;56.84;100145.25;5046792;28;19917;-84
2021/12/09 03:30:56;;;;;;;;;;;;;;;8.35;59.21;100150.94;5047674;28;19924;-81
2021/12/09 03:33:21;;;;;;;;;;;;;;;9.02;57.33;100143.09;5048020;28;19925;-81
2021/12/09 03:35:55;;;;;;;;;;;;;;;8.63;57.72;100150.44;5030553;28;19924;-87
2021/12/09 03:38:20;;;;;;;;;;;;;;;7.94;59.73;100164.59;5049340;28;19917;-81
2021/12/09 03:40:46;;;;;;;;;;;;;;;8.62;58.43;100155.91;5089179;23;19960;-81
2021/12/09 03:43:11;;;;;;;;;;;;;;;7.96;60.41;100157.34;5062897;23;19933;-81
2021/12/09 03:45:36;;;;;;;;;;;;;;;8.55;58.44;100159.91;5028371;28;19921;-81
2021/12/09 03:48:02;;;;;;;;;;;;;;;8.25;59.23;100161.28;5012757;28;19918;-81
2021/12/09 03:50:28;;;;;;;;;;;;;;;8.52;57.89;100167.16;5012772;28;19965;-81
2021/12/09 03:52:53;;;;;;;;;;;;;;;8.61;58.56;100167.66;5030035;28;19922;-81
2021/12/09 03:55:18;;;;;;;;;;;;;;;8.47;58.96;100168.34;5012201;28;20000;-80
2021/12/09 03:57:44;;;;;;;;;;;;;;;8.24;59.71;100166.75;5028224;28;19917;-82
2021/12/09 04:00:10;;;;;;;;;;;;;;;8.20;60.09;100174.13;5031499;28;19924;-81
2021/12/09 04:02:36;;;;;;;;;;;;;;;8.54;58.54;100174.31;5015569;28;19918;-82
2021/12/09 04:05:07;;;;;;;;;;;;;;;8.31;58.95;100170.91;5010232;28;19922;-81
2021/12/09 04:07:33;;;;;;;;;;;;;;;8.56;58.50;100175.09;5066692;23;19925;-81
2021/12/09 04:09:59;;;;;;;;;;;;;;;8.65;58.22;100182.72;5071859;28;19923;-81
2021/12/09 04:12:24;;;;;;;;;;;;;;;8.59;58.21;100180.34;5072724;28;19913;-80
2021/12/09 04:14:50;;;;;;;;;;;;;;;8.22;59.87;100177.59;5071692;28;19924;-82
2021/12/09 04:17:15;;;;;;;;;;;;;;;8.74;57.92;100168.81;5071850;28;20516;-81
2021/12/09 04:19:47;;;;;;;;;;;;;;;8.43;57.99;100174.81;5072154;28;20296;-82
2021/12/09 04:22:12;;;;;;;;;;;;;;;8.98;57.11;100166.66;5071251;28;20015;-85
2021/12/09 04:24:38;;;;;;;;;;;;;;;8.97;57.19;100174.84;5059189;23;19925;-82
2021/12/09 04:27:03;;;;;;;;;;;;;;;8.52;57.84;100175.25;5053895;28;19928;-81
2021/12/09 04:29:29;;;;;;;;;;;;;;;8.29;59.58;100172.81;5072254;28;19913;-81
2021/12/09 04:31:54;;;;;;;;;;;;;;;8.66;57.31;100171.00;5053863;28;19928;-82
2021/12/09 04:34:20;;;;;;;;;;;;;;;8.77;57.36;100167.75;5070933;28;19920;-81
2021/12/09 04:36:47;;;;;;;;;;;;;;;8.77;56.72;100165.94;5069987;28;20382;-84
2021/12/09 04:39:12;;;;;;;;;;;;;;;8.39;57.94;100166.00;5071615;28;19923;-83
2021/12/09 04:41:37;;;;;;;;;;;;;;;8.33;59.00;100169.00;5053510;28;19944;-82
2021/12/09 04:44:05;;;;;;;;;;;;;;;8.55;58.61;100165.28;5071016;28;19916;-81
2021/12/09 04:46:30;;;;;;;;;;;;;;;9.01;56.98;100163.81;5053460;28;19966;-82
2021/12/09 04:48:56;;;;;;;;;;;;;;;8.91;57.55;100167.94;5071813;28;19896;-79
2021/12/09 04:51:22;;;;;;;;;;;;;;;9.05;55.73;100186.09;5070841;28;20020;-81
2021/12/09 04:53:47;;;;;;;;;;;;;;;9.08;56.91;100176.97;5070267;28;20008;-83
2021/12/09 04:56:12;;;;;;;;;;;;;;;9.19;56.91;100183.56;5052533;28;19928;-87
2021/12/09 04:58:37;;;;;;;;;;;;;;;8.49;58.52;100191.59;5068758;28;19971;-81
2021/12/09 05:01:04;;;;;;;;;;;;;;;8.60;59.45;100196.44;5052106;28;19917;-82
2021/12/09 05:03:30;;;;;;;;;;;;;;;8.87;57.29;100204.97;5052046;28;19917;-80
2021/12/09 05:05:55;;;;;;;;;;;;;;;8.55;58.97;100200.34;5070735;28;20289;-80
2021/12/09 05:08:22;;;;;;;;;;;;;;;8.82;58.16;100209.72;5069832;28;20287;-82
2021/12/09 05:10:55;;;;;;;;;;;;;;;8.24;59.33;100201.78;5069821;28;19917;-81
2021/12/09 05:13:37;;;;;;;;;;;;;;;9.21;56.86;100195.13;5070639;28;19979;-81
2021/12/09 05:16:03;;;;;;;;;;;;;;;9.34;54.89;100200.75;5070741;28;19917;-83
2021/12/09 05:18:32;;;;;;;;;;;;;;;8.85;56.80;100203.31;5072600;28;19917;-83
2021/12/09 05:20:59;;;;;;;;;;;;;;;8.65;57.61;100209.69;5074026;28;19921;-82
2021/12/09 05:23:27;;;;;;;;;;;;;;;8.36;58.86;100206.56;5070867;28;19927;-81
2021/12/09 05:25:53;;;;;;;;;;;;;;;8.28;58.84;100206.94;5052181;28;20012;-81
2021/12/09 05:28:19;;;;;;;;;;;;;;;8.10;60.52;100195.22;5051164;28;19917;-81
2021/12/09 05:33:32;;;;;;;;;;;;;;;8.70;57.31;100194.16;5050464;28;19947;-83
2021/12/09 05:35:58;;;;;;;;;;;;;;;8.25;59.74;100208.94;5049471;28;19963;-80
2021/12/09 05:38:23;;;;;;;;;;;;;;;9.04;57.18;100204.13;5049809;28;19917;-81
2021/12/09 05:40:50;;;;;;;;;;;;;;;9.61;55.24;100197.53;5050970;28;19917;-80
2021/12/09 05:43:16;;;;;;;;;;;;;;;8.45;58.01;100211.53;5050281;28;19976;-80
2021/12/09 05:45:43;;;;;;;;;;;;;;;8.83;57.11;100211.47;5049375;28;19928;-81
2021/12/09 05:48:11;;;;;;;;;;;;;;;8.58;59.46;100209.13;5051333;28;19924;-80
2021/12/09 05:50:38;;;;;;;;;;;;;;;9.12;56.15;100203.72;5050086;28;19917;-81
2021/12/09 05:53:06;;;;;;;;;;;;;;;8.39;59.12;100214.50;5051896;28;19940;-83
2021/12/09 05:55:31;;;;;;;;;;;;;;;8.60;57.86;100217.16;5049729;28;19925;-81
2021/12/09 05:57:56;;;;;;;;;;;;;;;8.29;58.98;100219.50;5044137;28;20002;-84
2021/12/09 06:00:22;;;;;;;;;;;;;;;8.57;58.91;100212.78;5020868;28;19921;-86
2021/12/09 06:02:48;;;;;;;;;;;;;;;9.25;56.11;100212.03;5020036;28;19925;-85
2021/12/09 06:05:13;;;;;;;;;;;;;;;8.90;56.69;100220.13;5019437;28;19917;-88
2021/12/09 06:07:39;;;;;;;;;;;;;;;9.02;56.84;100224.88;5019488;28;19917;-88
2021/12/09 06:10:05;;;;;;;;;;;;;;;8.21;59.96;100228.88;5021045;28;19922;-88
2021/12/09 06:12:30;;;;;;;;;;;;;;;8.58;57.85;100232.53;5022154;28;19918;-84
2021/12/09 06:14:57;;;;;;;;;;;;;;;9.23;55.83;100220.22;5022346;28;20268;-88
2021/12/09 06:17:27;;;;;;;;;;;;;;;8.27;58.79;100231.28;5023013;28;19917;-84
2021/12/09 06:19:52;;;;;;;;;;;;;;;8.39;58.88;100225.28;5023659;28;19917;-87
2021/12/09 06:22:17;;;;;;;;;;;;;;;9.08;57.56;100231.81;5024247;28;19923;-86
2021/12/09 06:24:44;;;;;;;;;;;;;;;8.42;59.00;100230.53;5032117;28;19925;-84
2021/12/09 06:27:10;;;;;;;;;;;;;;;8.54;58.76;100236.31;5043994;28;19917;-84
2021/12/09 06:29:35;;;;;;;;;;;;;;;8.79;57.80;100228.75;5040323;28;20294;-83
2021/12/09 06:32:06;;;;;;;;;;;;;;;8.85;57.29;100223.06;5023521;28;20055;-86
2021/12/09 06:34:32;;;;;;;;;;;;;;;8.80;58.07;100225.13;5024327;28;19948;-88
2021/12/09 06:36:58;;;;;;;;;;;;;;;8.87;56.64;100228.38;5041427;28;19971;-85
2021/12/09 06:39:23;;;;;;;;;;;;;;;9.47;55.38;100227.13;5024958;28;19928;-86
2021/12/09 06:41:49;;;;;;;;;;;;;;;9.16;56.62;100224.19;5043194;28;19917;-87
2021/12/09 06:44:16;;;;;;;;;;;;;;;9.43;56.49;100217.44;5025218;28;19925;-86
2021/12/09 06:46:42;;;;;;;;;;;;;;;8.26;58.89;100227.72;5044179;28;19959;-88
2021/12/09 06:49:07;;;;;;;;;;;;;;;8.73;59.11;100223.69;5026538;28;20285;-84
2021/12/09 06:51:32;;;;;;;;;;;;;;;8.95;58.11;100220.78;5023791;28;20000;-85
2021/12/09 06:53:58;;;;;;;;;;;;;;;8.70;57.16;100221.13;5041490;28;19928;-86
2021/12/09 06:56:27;;;;;;;;;;;;;;;8.43;58.97;100218.81;5042554;28;19928;-84
2021/12/09 06:58:53;;;;;;;;;;;;;;;9.31;56.36;100229.75;5026731;28;19917;-82
2021/12/09 07:01:18;;;;;;;;;;;;;;;8.93;57.83;100221.81;5040901;28;19917;-86
2021/12/09 07:03:43;;;;;;;;;;;;;;;8.39;59.60;100232.50;5039683;28;19928;-87
2021/12/09 07:06:11;;;;;;;;;;;;;;;8.71;59.38;100222.00;5022508;28;20385;-89
2021/12/09 07:08:46;;;;;;;;;;;;;;;9.18;57.20;100233.06;5039397;28;20008;-88
2021/12/09 07:11:15;;;;;;;;;;;;;;;9.29;56.68;100237.06;5023953;28;19946;-89
2021/12/09 07:13:44;;;;;;;;;;;;;;;9.23;56.21;100228.31;5039445;28;19956;-88
2021/12/09 07:16:10;;;;;;;;;;;;;;;8.94;57.77;100231.66;5059357;28;19923;-86
2021/12/09 07:18:35;;;;;;;;;;;;;;;8.78;57.68;100229.69;5057562;28;19921;-87
2021/12/09 07:21:04;;;;;;;;;;;;;;;8.74;58.58;100228.13;5042398;28;19921;-92
2021/12/09 07:23:29;;;;;;;;;;;;;;;9.53;55.38;100232.19;5059570;28;19924;-84
2021/12/09 07:25:54;;;;;;;;;;;;;;;9.08;57.08;100241.72;5059541;28;19918;-88
2021/12/09 07:28:20;;;;;;;;;;;;;;;8.76;57.26;100245.09;5041522;28;19984;-86
2021/12/09 07:30:45;;;;;;;;;;;;;;;8.84;57.41;100242.88;5040860;28;19917;-90
2021/12/09 07:33:10;;;;;;;;;;;;;;;9.02;56.45;100243.78;5038243;28;20749;-89
2021/12/09 07:35:36;;;;;;;;;;;;;;;9.05;56.73;100249.00;5040317;28;19987;-88
2021/12/09 07:38:02;;;;;;;;;;;;;;;8.89;57.23;100250.72;5039597;28;19989;-88
2021/12/09 07:40:28;;;;;;;;;;;;;;;8.36;59.91;100254.22;5039345;28;20024;-92
2021/12/09 07:42:53;;;;;;;;;;;;;;;9.28;56.84;100244.25;5021225;28;20095;-84
2021/12/09 07:45:19;;;;;;;;;;;;;;;9.26;57.61;100239.91;5020520;28;19921;-87
2021/12/09 07:47:45;;;;;;;;;;;;;;;8.79;58.43;100249.47;5020746;28;19928;-88
2021/12/09 07:50:13;;;;;;;;;;;;;;;8.85;57.89;100252.72;5035525;28;19913;-84
2021/12/09 07:52:40;;;;;;;;;;;;;;;9.55;56.61;100255.44;5036903;28;20382;-86
2021/12/09 07:55:05;;;;;;;;;;;;;;;8.87;59.12;100267.00;5020815;28;19921;-87
2021/12/09 07:57:33;;;;;;;;;;;;;;;9.01;58.68;100269.03;5020423;28;19921;-87
2021/12/09 07:59:58;;;;;;;;;;;;;;;9.09;58.42;100271.34;5017705;28;19964;-86
2021/12/09 08:02:23;;;;;;;;;;;;;;;8.97;59.38;100266.56;5017733;28;19914;-88
2021/12/09 08:04:49;;;;;;;;;;;;;;;9.48;58.63;100272.94;5020154;28;20379;-89
2021/12/09 08:07:14;;;;;;;;;;;;;;;8.99;59.57;100272.75;5040458;28;19998;-89
2021/12/09 08:09:39;;;;;;;;;;;;;;;8.47;62.12;100289.63;5037427;28;20015;-85
2021/12/09 08:12:05;;;;;;;;;;;;;;;8.78;62.54;100288.19;5053886;28;19921;-86
2021/12/09 08:14:30;;;;;;;;;;;;;;;8.68;62.01;100287.72;5056200;28;20302;-84
2021/12/09 08:17:09;;;;;;;;;;;;;;;8.67;62.23;100296.78;5056038;28;19921;-85
2021/12/09 08:19:34;;;;;;;;;;;;;;;9.49;59.72;100290.00;5035826;28;20016;-85
2021/12/09 08:22:00;;;;;;;;;;;;;;;9.91;57.41;100281.44;5028408;28;19917;-85
2021/12/09 08:24:25;;;;;;;;;;;;;;;9.18;60.50;100291.59;5041881;28;19925;-85
2021/12/09 08:26:50;;;;;;;;;;;;;;;9.44;59.09;100297.47;5058673;28;20020;-90
2021/12/09 08:29:15;;;;;;;;;;;;;;;9.19;60.87;100296.00;5057625;28;20404;-86
2021/12/09 08:31:41;;;;;;;;;;;;;;;9.43;59.67;100296.59;5056470;28;19923;-88
2021/12/09 08:34:06;;;;;;;;;;;;;;;9.44;58.44;100284.84;5057385;28;19924;-90
2021/12/09 08:36:32;;;;;;;;;;;;;;;9.21;60.25;100286.91;5056683;28;19947;-87
2021/12/09 08:38:58;;;;;;;;;;;;;;;9.44;60.20;100282.13;5056961;28;19917;-86
2021/12/09 08:41:24;;;;;;;;;;;;;;;9.26;61.09;100294.75;5053805;28;19923;-87
2021/12/09 08:43:51;;;;;;;;;;;;;;;8.94;62.12;100278.38;5020356;28;20006;-87
2021/12/09 08:46:17;;;;;;;;;;;;;;;9.15;61.07;100294.41;5027706;28;20382;-86
2021/12/09 08:48:42;;;;;;;;;;;;;;;9.70;60.45;100275.34;5053708;28;20373;-91
2021/12/09 08:51:08;;;;;;;;;;;;;;;9.93;58.16;100295.75;5058694;28;19924;-85
2021/12/09 08:53:33;;;;;;;;;;;;;;;10.02;57.90;100280.00;5042470;28;19917;-84
2021/12/09 08:55:59;;;;;;;;;;;;;;;9.76;58.38;100302.03;5040164;28;19992;-85
2021/12/09 08:58:27;;;;;;;;;;;;;;;10.11;57.63;100288.47;5041617;28;20480;-90
2021/12/09 09:00:54;;;;;;;;;;;;;;;9.67;59.49;100297.13;5034165;28;20282;-88
2021/12/09 09:03:19;;;;;;;;;;;;;;;9.54;59.94;100294.22;5053190;28;19921;-86
2021/12/09 09:05:45;;;;;;;;;;;;;;;10.04;58.45;100302.38;5023546;28;19925;-86
2021/12/09 09:08:10;;;;;;;;;;;;;;;9.98;58.69;100306.31;5024325;28;19927;-85
2021/12/09 09:10:36;;;;;;;;;;;;;;;9.54;60.84;100296.91;5044551;28;19917;-87
2021/12/09 09:13:02;;;;;;;;;;;;;;;9.84;58.63;100290.81;5062185;28;19917;-86
2021/12/09 09:15:28;;;;;;;;;;;;;;;10.51;57.39;100300.75;5061228;28;20370;-87
2021/12/09 09:17:54;;;;;;;;;;;;;;;10.32;58.56;100301.75;5061072;28;19932;-86
2021/12/09 09:20:23;;;;;;;;;;;;;;;10.50;58.40;100299.88;5061395;28;19917;-85
2021/12/09 09:22:49;;;;;;;;;;;;;;;10.52;57.48;100297.97;5057167;28;19917;-83
2021/12/09 09:25:20;;;;;;;;;;;;;;;10.56;56.85;100304.94;5052414;28;20405;-84
2021/12/09 09:27:47;;;;;;;;;;;;;;;10.28;58.39;100302.88;5053487;28;19917;-84
2021/12/09 09:30:14;;;;;;;;;;;;;;;10.19;58.82;100309.69;5029285;28;19929;-84
2021/12/09 09:32:40;;;;;;;;;;;;;;;10.76;57.18;100302.94;5042160;28;19921;-84
2021/12/09 09:35:06;;;;;;;;;;;;;;;10.09;58.46;100306.59;5047931;28;20387;-82
2021/12/09 09:37:31;;;;;;;;;;;;;;;10.13;59.31;100310.03;5041101;28;19956;-84
2021/12/09 09:39:56;;;;;;;;;;;;;;;10.49;58.45;100303.53;5028097;28;19921;-84
2021/12/09 09:43:25;;;;;;;;;;;;;;;10.56;57.80;100302.25;5049891;28;19980;-84
2021/12/09 09:45:10;;;;;;;;;;;;;;;10.13;59.76;100296.50;5049550;28;20357;-85
2021/12/09 09:47:35;;;;;;;;;;;;;;;10.51;58.21;100304.34;5043675;28;19921;-84
2021/12/09 09:50:02;;;;;;;;;;;;;;;10.68;58.16;100305.22;5039141;28;19920;-84
2021/12/09 09:52:28;;;;;;;;;;;;;;;9.94;59.76;100308.28;5038006;28;19921;-85
2021/12/09 09:54:54;;;;;;;;;;;;;;;10.16;60.14;100300.84;5039521;28;19920;-85
2021/12/09 09:57:20;;;;;;;;;;;;;;;10.27;58.97;100303.84;5022476;28;19917;-83
2021/12/09 09:59:45;;;;;;;;;;;;;;;10.33;60.23;100302.66;5047460;28;19924;-84
2021/12/09 10:02:11;;;;;;;;;;;;;;;10.39;59.46;100303.19;5059486;28;19916;-84
2021/12/09 10:07:08;;;;;;;;;;;;;;;10.56;58.65;100310.38;5047519;28;20004;-82
2021/12/09 10:09:33;;;;;;;;;;;;;;;10.17;60.65;100299.91;5037901;28;19964;-84
2021/12/09 10:12:00;;;;;;;;;;;;;;;11.16;56.59;100306.06;5038121;28;19917;-84
2021/12/09 10:14:29;;;;;;;;;;;;;;;10.87;56.39;100311.34;5039245;28;20423;-84
2021/12/09 10:17:02;;;;;;;;;;;;;;;11.41;55.81;100304.59;5055153;28;19917;-82
2021/12/09 10:19:28;;;;;;;;;;;;;;;11.73;55.65;100299.97;5022524;28;19917;-87
2021/12/09 10:22:03;;;;;;;;;;;;;;;10.52;59.21;100311.47;5042382;28;19905;-85
2021/12/09 10:24:30;;;;;;;;;;;;;;;10.80;59.67;100305.38;5042367;28;19924;-87
2021/12/09 10:26:56;;;;;;;;;;;;;;;10.72;58.93;100315.78;5037567;28;19921;-82
2021/12/09 10:29:29;;;;;;;;;;;;;;;10.73;59.24;100320.22;5060308;28;20016;-85
2021/12/09 10:31:58;;;;;;;;;;;;;;;10.49;60.21;100321.63;5061772;28;20023;-83
2021/12/09 10:34:36;;;;;;;;;;;;;;;10.61;60.28;100308.28;5048648;28;19943;-88
2021/12/09 10:37:20;;;;;;;;;;;;;;;10.83;59.22;100315.19;5040559;28;19928;-88
2021/12/09 10:40:06;;;;;;;;;;;;;;;11.04;57.83;100302.25;5063727;28;19924;-87
2021/12/09 10:42:36;;;;;;;;;;;;;;;11.67;56.54;100293.06;5062339;28;19917;-86
2021/12/09 10:45:01;;;;;;;;;;;;;;;11.58;57.17;100287.31;5058601;28;19963;-87
2021/12/09 10:50:15;;;;;;;;;;;;;;;10.40;60.31;100290.53;5043855;28;19917;-85
2021/12/09 10:52:44;;;;;;;;;;;;;;;10.90;59.43;100286.81;5046777;28;19992;-84
2021/12/09 10:55:11;;;;;;;;;;;;;;;10.70;60.58;100295.19;5044424;28;19917;-87
2021/12/09 10:57:36;;;;;;;;;;;;;;;11.50;57.03;100293.22;5057261;28;19917;-86
2021/12/09 11:00:17;;;;;;;;;;;;;;;10.48;60.50;100288.31;5040176;28;20369;-86
2021/12/09 11:02:57;;;;;;;;;;;;;;;10.73;60.25;100292.31;5058704;28;20009;-86
2021/12/09 11:05:22;;;;;;;;;;;;;;;10.90;58.95;100300.34;5053712;28;19921;-90
2021/12/09 11:07:48;;;;;;;;;;;;;;;11.16;59.53;100287.97;5052462;28;19931;-87
2021/12/09 11:10:17;;;;;;;;;;;;;;;11.12;58.62;100291.81;5037067;28;19909;-86
2021/12/09 11:12:57;;;;;;;;;;;;;;;11.24;58.94;100284.81;5052868;28;19917;-88
2021/12/09 11:15:42;;;;;;;;;;;;;;;11.06;58.77;100284.06;5047345;28;19917;-87
2021/12/09 11:18:25;;;;;;;;;;;;;;;11.70;57.37;100287.47;5045161;28;19921;-87
2021/12/09 11:20:50;;;;;;;;;;;;;;;11.56;57.18;100283.84;5036519;28;19921;-85
2021/12/09 11:23:34;;;;;;;;;;;;;;;11.30;57.89;100287.16;5038064;28;19924;-86
2021/12/09 11:26:18;;;;;;;;;;;;;;;10.92;59.45;100282.16;5036487;28;19962;-81
2021/12/09 11:28:54;;;;;;;;;;;;;;;10.63;60.53;100290.13;5038156;28;19964;-88
2021/12/09 11:31:20;;;;;;;;;;;;;;;11.29;59.17;100285.44;5040287;28;19917;-85
2021/12/09 11:33:46;;;;;;;;;;;;;;;10.95;59.99;100286.53;5043021;28;19947;-88
2021/12/09 11:36:17;;;;;;;;;;;;;;;10.88;60.39;100291.41;5048381;28;19948;-85
2021/12/09 11:39:06;;;;;;;;;;;;;;;10.55;60.60;100288.81;5042739;28;19940;-88
2021/12/09 11:41:34;;;;;;;;;;;;;;;11.05;60.09;100274.22;5047574;28;19917;-86
2021/12/09 11:44:02;;;;;;;;;;;;;;;11.25;59.37;100278.44;5040155;28;19917;-86
2021/12/09 11:46:27;;;;;;;;;;;;;;;11.06;59.31;100281.34;5055896;28;19917;-85
2021/12/09 11:48:52;;;;;;;;;;;;;;;11.74;57.49;100274.59;5056562;28;19917;-89
2021/12/09 11:51:18;;;;;;;;;;;;;;;10.88;60.74;100274.31;5037207;28;20004;-85
2021/12/09 11:53:45;;;;;;;;;;;;;;;11.60;58.04;100266.44;5044095;28;19917;-92
2021/12/09 11:56:36;;;;;;;;;;;;;;;11.31;59.51;100267.25;5039153;28;20309;-92
2021/12/09 12:11:31;;;;;;;;;;;;;;;11.87;58.38;100266.56;5012075;28;19963;-88
2021/12/09 12:16:40;;;;;;;;;;;;;;;11.04;62.13;100272.47;5038209;28;20019;-87
2021/12/09 12:19:17;;;;;;;;;;;;;;;11.02;62.45;100259.97;5019585;28;19976;-86
2021/12/09 12:27:12;;;;;;;;;;;;;;;10.89;62.58;100267.97;5023934;28;19921;-86
2021/12/09 12:37:47;;;;;;;;;;;;;;;11.40;61.65;100262.22;5027162;28;20063;-86
2021/12/09 12:40:13;;;;;;;;;;;;;;;11.50;60.82;100260.69;5021140;28;19917;-88
2021/12/09 12:42:48;;;;;;;;;;;;;;;11.12;61.43;100263.88;5025768;28;20482;-84
2021/12/09 12:48:31;;;;;;;;;;;;;;;11.60;60.51;100264.59;5021997;28;19918;-86
2021/12/09 12:51:19;;;;;;;;;;;;;;;11.73;59.89;100261.13;5021525;28;19926;-88
2021/12/09 12:53:54;;;;;;;;;;;;;;;11.53;61.47;100257.81;5024026;28;19921;-87
2021/12/09 12:56:27;;;;;;;;;;;;;;;11.85;59.38;100268.50;5041135;28;19932;-87
2021/12/09 12:59:01;;;;;;;;;;;;;;;11.41;61.48;100259.41;5040758;28;20294;-86
2021/12/09 13:01:29;;;;;;;;;;;;;;;12.01;59.28;100263.88;5014875;28;19926;-86
2021/12/09 13:03:58;;;;;;;;;;;;;;;12.64;57.30;100261.69;5021056;28;19921;-85
2021/12/09 13:06:41;;;;;;;;;;;;;;;12.89;55.98;100254.63;5033937;28;19995;-85
2021/12/09 13:09:48;;;;;;;;;;;;;;;11.87;59.09;100259.31;5019849;28;19921;-89
2021/12/09 13:12:34;;;;;;;;;;;;;;;11.83;59.73;100265.00;4981839;28;19921;-85
2021/12/09 13:15:09;;;;;;;;;;;;;;;12.12;59.55;100257.78;5010907;28;19922;-82
2021/12/09 13:17:46;;;;;;;;;;;;;;;11.74;60.60;100260.16;5034064;28;19925;-85
2021/12/09 13:20:28;;;;;;;;;;;;;;;11.66;60.17;100258.78;5007368;28;20302;-83
2021/12/09 13:23:19;;;;;;;;;;;;;;;12.27;58.95;100255.06;5029260;28;19921;-87
2021/12/09 13:26:03;;;;;;;;;;;;;;;12.17;58.56;100257.50;5047793;28;19932;-84
2021/12/09 13:28:37;;;;;;;;;;;;;;;12.59;57.55;100251.16;5030424;28;19928;-87